createdAt,value
2023-01-28T00:03:49.437Z,3.95
2023-01-28T00:06:16.613Z,4.28
2023-01-28T00:11:11.805Z,4.15
2023-01-28T00:13:39.077Z,4.07
2023-01-28T00:16:10.417Z,4.13
2023-01-28T00:18:37.648Z,4.88
2023-01-28T00:21:05.736Z,4.40
2023-01-28T00:23:34.701Z,4.00
2023-01-28T00:26:03.228Z,3.80
2023-01-28T00:28:30.431Z,3.50
2023-01-28T00:30:57.512Z,3.65
2023-01-28T00:36:01.506Z,7.40
2023-01-28T00:38:28.931Z,3.83
2023-01-28T00:40:56.621Z,2.67
2023-01-28T00:43:23.906Z,4.13
2023-01-28T00:45:51.074Z,4.30
2023-01-28T00:48:18.180Z,4.38
2023-01-28T00:50:46.239Z,4.75
2023-01-28T00:53:14.374Z,4.50
2023-01-28T00:58:09.190Z,4.03
2023-01-28T01:03:03.355Z,4.10
2023-01-28T01:07:57.515Z,4.55
2023-01-28T01:10:24.742Z,4.43
2023-01-28T01:12:51.951Z,3.92
2023-01-28T01:15:20.415Z,4.82
2023-01-28T01:17:48.806Z,4.82
2023-01-28T01:20:23.936Z,4.65
2023-01-28T01:22:51.323Z,4.55
2023-01-28T01:27:48.377Z,4.90
2023-01-28T01:30:16.022Z,4.40
2023-01-28T01:32:43.518Z,4.97
2023-01-28T01:35:10.731Z,4.57
2023-01-28T01:37:39.861Z,3.88
2023-01-28T01:40:08.106Z,3.65
2023-01-28T01:42:35.278Z,4.53
2023-01-28T01:45:07.411Z,3.65
2023-01-28T01:48:00.791Z,4.22
2023-01-28T01:50:38.828Z,4.65
2023-01-28T01:53:16.608Z,4.43
2023-01-28T01:55:46.031Z,4.72
2023-01-28T01:58:15.396Z,4.80
2023-01-28T02:00:42.759Z,4.90
2023-01-28T02:03:10.848Z,4.82
2023-01-28T02:05:38.079Z,5.00
2023-01-28T02:08:21.618Z,5.40
2023-01-28T02:11:09.037Z,5.97
2023-01-28T02:13:41.623Z,5.50
2023-01-28T02:16:09.051Z,6.75
2023-01-28T02:18:36.234Z,6.55
2023-01-28T02:23:47.284Z,5.57
2023-01-28T02:26:23.783Z,4.93
2023-01-28T02:29:23.964Z,6.00
2023-01-28T02:32:04.909Z,6.53
2023-01-28T02:34:35.515Z,5.82
2023-01-28T02:37:10.686Z,6.00
2023-01-28T02:39:44.252Z,5.65
2023-01-28T02:42:17.147Z,6.95
2023-01-28T02:44:44.434Z,5.63
2023-01-28T02:47:30.923Z,5.68
2023-01-28T02:49:59.799Z,5.70
2023-01-28T02:52:47.265Z,5.97
2023-01-28T02:55:23.154Z,5.50
2023-01-28T02:58:10.603Z,6.30
2023-01-28T03:00:46.970Z,6.20
2023-01-28T03:03:24.968Z,6.57
2023-01-28T03:06:08.647Z,6.97
2023-01-28T03:09:03.056Z,7.15
2023-01-28T03:11:50.779Z,6.07
2023-01-28T03:14:36.556Z,6.55
2023-01-28T03:17:22.516Z,6.38
2023-01-28T03:20:08.191Z,7.07
2023-01-28T03:22:55.822Z,6.97
2023-01-28T03:25:41.916Z,6.68
2023-01-28T03:28:29.353Z,5.97
2023-01-28T03:31:23.295Z,6.68
2023-01-28T03:34:11.453Z,5.45
2023-01-28T03:36:50.718Z,5.50
2023-01-28T03:39:37.260Z,5.47
2023-01-28T03:42:09.756Z,5.70
2023-01-28T03:44:53.469Z,5.95
2023-01-28T03:47:23.111Z,6.05
2023-01-28T03:49:51.959Z,5.95
2023-01-28T03:52:23.946Z,5.43
2023-01-28T03:54:52.998Z,5.20
2023-01-28T03:57:22.677Z,5.40
2023-01-28T03:59:50.647Z,5.88
2023-01-28T04:02:17.815Z,5.85
2023-01-28T04:04:46.599Z,5.57
2023-01-28T04:07:16.682Z,5.68
2023-01-28T04:10:02.132Z,5.93
2023-01-28T04:12:41.593Z,5.70
2023-01-28T04:17:48.747Z,5.53
2023-01-28T04:20:23.543Z,4.68
2023-01-28T04:22:50.644Z,5.00
2023-01-28T04:25:19.508Z,3.90
2023-01-28T04:27:47.141Z,4.90
2023-01-28T04:30:22.469Z,4.55
2023-01-28T04:33:09.970Z,4.65
2023-01-28T04:36:00.072Z,5.88
2023-01-28T04:38:56.670Z,5.15
2023-01-28T04:41:36.742Z,5.05
2023-01-28T04:44:10.226Z,4.10
2023-01-28T04:46:56.099Z,5.10
2023-01-28T04:49:34.691Z,5.72
2023-01-28T04:52:25.300Z,5.90
2023-01-28T04:54:55.922Z,4.82
2023-01-28T04:57:24.105Z,5.35
2023-01-28T04:59:51.740Z,5.43
2023-01-28T05:02:18.917Z,6.22
2023-01-28T05:04:47.675Z,6.43
2023-01-28T05:07:30.560Z,6.05
2023-01-28T05:09:57.710Z,5.63
2023-01-28T05:14:52.319Z,5.07
2023-01-28T05:17:21.265Z,5.82
2023-01-28T05:19:48.819Z,5.35
2023-01-28T05:22:20.731Z,4.70
2023-01-28T05:25:10.014Z,5.20
2023-01-28T05:27:37.170Z,5.18
2023-01-28T05:32:32.378Z,4.57
2023-01-28T05:34:59.517Z,4.63
2023-01-28T05:37:26.689Z,4.72
2023-01-28T05:39:56.423Z,5.28
2023-01-28T05:42:23.661Z,4.85
2023-01-28T05:44:55.819Z,6.20
2023-01-28T05:47:45.538Z,6.03
2023-01-28T05:50:36.159Z,4.88
2023-01-28T05:53:11.836Z,5.40
2023-01-28T05:55:41.532Z,4.50
2023-01-28T05:58:08.921Z,4.63
2023-01-28T06:00:36.879Z,4.07
2023-01-28T06:03:05.254Z,4.10
2023-01-28T06:05:32.855Z,3.83
2023-01-28T06:08:01.390Z,2.85
2023-01-28T06:12:56.315Z,3.10
2023-01-28T06:15:43.756Z,2.17
2023-01-28T06:18:34.034Z,2.40
2023-01-28T06:21:01.184Z,1.85
2023-01-28T06:25:56.158Z,1.88
2023-01-28T06:28:24.994Z,1.77
2023-01-28T06:30:52.938Z,1.85
2023-01-28T06:33:20.641Z,1.70
2023-01-28T06:35:47.871Z,1.50
2023-01-28T06:40:42.377Z,1.42
2023-01-28T06:43:09.629Z,1.52
2023-01-28T06:45:36.776Z,1.35
2023-01-28T06:48:04.522Z,2.00
2023-01-28T06:50:32.100Z,1.92
2023-01-28T06:52:59.182Z,1.77
2023-01-28T06:57:53.355Z,2.50
2023-01-28T07:02:47.934Z,1.77
2023-01-28T07:05:15.078Z,1.70
2023-01-28T07:10:10.867Z,1.63
2023-01-28T07:12:37.901Z,1.60
2023-01-28T07:17:32.493Z,1.90
2023-01-28T07:19:59.654Z,1.98
2023-01-28T07:24:53.746Z,1.60
2023-01-28T07:29:47.683Z,1.95
2023-01-28T07:32:14.749Z,1.90
2023-01-28T07:37:10.336Z,2.13
2023-01-28T07:42:04.579Z,1.90
2023-01-28T07:44:38.846Z,1.50
2023-01-28T07:47:06.594Z,1.80
2023-01-28T07:49:34.389Z,2.22
2023-01-28T07:52:01.553Z,1.90
2023-01-28T07:56:55.742Z,2.20
2023-01-28T08:01:49.866Z,2.42
2023-01-28T08:06:43.945Z,1.90
2023-01-28T08:09:11.159Z,1.85
2023-01-28T08:11:38.806Z,1.98
2023-01-28T08:14:06.030Z,1.92
2023-01-28T08:16:33.133Z,2.05
2023-01-28T08:21:27.251Z,1.98
2023-01-28T08:26:22.248Z,2.30
2023-01-28T08:31:18.888Z,1.33
2023-01-28T08:33:46.165Z,2.03
2023-01-28T08:36:13.217Z,1.63
2023-01-28T08:41:07.285Z,1.70
2023-01-28T08:46:01.648Z,1.95
2023-01-28T08:48:28.670Z,2.15
2023-01-28T08:50:55.686Z,1.70
2023-01-28T08:55:49.733Z,1.80
2023-01-28T09:00:45.024Z,1.80
2023-01-28T09:03:12.367Z,2.20
2023-01-28T09:05:39.612Z,2.53
2023-01-28T09:08:11.322Z,1.95
2023-01-28T09:10:38.668Z,2.22
2023-01-28T09:13:07.020Z,2.13
2023-01-28T09:15:34.376Z,1.95
2023-01-28T09:18:01.405Z,2.20
2023-01-28T09:20:28.639Z,1.70
2023-01-28T09:22:55.719Z,2.05
2023-01-28T09:27:49.839Z,2.22
2023-01-28T09:32:44.719Z,2.42
2023-01-28T09:37:39.284Z,2.30
2023-01-28T09:40:07.150Z,2.55
2023-01-28T09:42:53.168Z,2.95
2023-01-28T09:45:37.089Z,2.92
2023-01-28T09:48:05.194Z,2.63
2023-01-28T09:50:40.338Z,2.55
2023-01-28T09:53:15.839Z,2.05
2023-01-28T09:56:30.902Z,2.13
2023-01-28T09:59:11.937Z,1.85
2023-01-28T10:01:51.505Z,2.20
2023-01-28T10:04:30.339Z,1.70
2023-01-28T10:07:05.723Z,2.15
2023-01-28T10:10:03.411Z,2.13
2023-01-28T10:12:37.457Z,2.20
2023-01-28T10:15:58.280Z,2.47
2023-01-28T10:18:33.373Z,2.08
2023-01-28T10:21:17.271Z,2.13
2023-01-28T10:23:47.656Z,3.08
2023-01-28T10:26:27.281Z,2.90
2023-01-28T10:28:56.602Z,2.88
2023-01-28T10:31:24.394Z,3.28
2023-01-28T10:33:51.617Z,2.65
2023-01-28T10:36:18.779Z,2.72
2023-01-28T10:41:13.354Z,2.17
2023-01-28T10:43:40.790Z,1.90
2023-01-28T10:46:34.285Z,1.95
2023-01-28T10:49:10.252Z,1.58
2023-01-28T10:51:38.946Z,1.80
2023-01-28T10:54:27.722Z,2.13
2023-01-28T10:57:05.399Z,2.28
2023-01-28T11:02:05.583Z,2.10
2023-01-28T11:04:36.202Z,1.80
2023-01-28T11:07:07.436Z,1.70
2023-01-28T11:09:38.051Z,1.80
2023-01-28T11:12:26.070Z,1.95
2023-01-28T11:15:00.513Z,1.90
2023-01-28T11:17:36.117Z,2.70
2023-01-28T11:20:26.139Z,2.10
2023-01-28T11:22:53.291Z,1.80
2023-01-28T11:28:02.237Z,2.40
2023-01-28T11:30:36.200Z,1.50
2023-01-28T11:33:18.373Z,1.85
2023-01-28T11:36:08.230Z,1.60
2023-01-28T11:38:35.280Z,1.70
2023-01-28T11:43:31.247Z,2.22
2023-01-28T11:46:24.427Z,1.90
2023-01-28T11:48:57.502Z,2.35
2023-01-28T11:51:48.620Z,1.60
2023-01-28T11:54:32.302Z,2.13
2023-01-28T11:57:20.556Z,2.00
2023-01-28T11:59:53.670Z,2.45
2023-01-28T12:02:44.914Z,2.38
2023-01-28T12:05:26.546Z,2.30
2023-01-28T12:08:02.500Z,2.85
2023-01-28T12:10:33.457Z,2.45
2023-01-28T12:13:12.484Z,2.50
2023-01-28T12:16:18.605Z,2.63
2023-01-28T12:19:03.559Z,2.88
2023-01-28T12:21:48.399Z,2.40
2023-01-28T12:24:37.147Z,2.45
2023-01-28T12:27:16.561Z,2.47
2023-01-28T12:30:24.265Z,2.35
2023-01-28T12:33:25.273Z,2.38
2023-01-28T12:35:58.667Z,2.85
2023-01-28T12:38:52.626Z,2.97
2023-01-28T12:41:21.716Z,2.80
2023-01-28T12:43:58.873Z,2.70
2023-01-28T12:46:52.470Z,3.22
2023-01-28T12:49:35.079Z,2.88
2023-01-28T12:52:24.489Z,3.20
2023-01-28T12:55:10.128Z,2.60
2023-01-28T12:57:37.356Z,3.25
2023-01-28T13:03:07.027Z,3.10
2023-01-28T13:05:37.942Z,2.92
2023-01-28T13:08:24.634Z,2.58
2023-01-28T13:10:52.837Z,2.40
2023-01-28T13:13:39.121Z,2.60
2023-01-28T13:16:07.990Z,3.35
2023-01-28T13:18:45.389Z,2.40
2023-01-28T13:21:24.733Z,2.88
2023-01-28T13:24:12.226Z,2.40
2023-01-28T13:26:44.754Z,2.97
2023-01-28T13:29:14.894Z,3.05
2023-01-28T13:31:43.559Z,2.58
2023-01-28T13:34:36.380Z,2.40
2023-01-28T13:37:25.177Z,2.35
2023-01-28T13:40:00.181Z,2.17
2023-01-28T13:42:28.665Z,2.20
2023-01-28T13:44:56.429Z,2.47
2023-01-28T13:47:29.960Z,2.50
2023-01-28T13:50:04.981Z,1.85
2023-01-28T13:52:37.973Z,2.13
2023-01-28T13:55:41.290Z,2.13
2023-01-28T13:58:41.175Z,1.58
2023-01-28T14:01:16.586Z,1.92
2023-01-28T14:04:14.347Z,1.42
2023-01-28T14:06:59.597Z,1.70
2023-01-28T14:09:35.355Z,1.80
2023-01-28T14:12:27.383Z,1.75
2023-01-28T14:15:30.396Z,1.70
2023-01-28T14:17:57.684Z,1.95
2023-01-28T14:20:39.608Z,1.77
2023-01-28T14:23:16.466Z,1.75
2023-01-28T14:26:05.123Z,2.03
2023-01-28T14:28:35.334Z,1.98
2023-01-28T14:31:12.210Z,1.95
2023-01-28T14:33:39.356Z,2.00
2023-01-28T14:38:36.966Z,1.85
2023-01-28T14:41:04.153Z,3.08
2023-01-28T14:46:22.067Z,1.85
2023-01-28T14:49:23.704Z,2.38
2023-01-28T14:51:56.776Z,2.65
2023-01-28T14:54:35.863Z,2.80
2023-01-28T14:57:32.411Z,2.80
2023-01-28T15:00:01.167Z,2.20
2023-01-28T15:02:29.582Z,2.15
2023-01-28T15:05:07.121Z,2.67
2023-01-28T15:07:34.226Z,2.08
2023-01-28T15:12:28.809Z,2.85
2023-01-28T15:14:55.914Z,2.80
2023-01-28T15:19:55.689Z,2.72
2023-01-28T15:22:25.717Z,2.58
2023-01-28T15:24:52.837Z,2.47
2023-01-28T15:27:26.744Z,2.42
2023-01-28T15:29:55.266Z,2.30
2023-01-28T15:32:27.610Z,2.80
2023-01-28T15:34:54.877Z,2.75
2023-01-28T15:37:22.052Z,2.60
2023-01-28T15:42:22.129Z,2.80
2023-01-28T15:44:49.308Z,3.28
2023-01-28T15:47:23.494Z,3.03
2023-01-28T15:49:55.253Z,2.80
2023-01-28T15:52:22.591Z,3.03
2023-01-28T15:54:51.647Z,2.90
2023-01-28T15:57:25.226Z,3.20
2023-01-28T15:59:52.307Z,2.72
2023-01-28T16:04:59.564Z,3.00
2023-01-28T16:07:27.660Z,3.25
2023-01-28T16:09:55.377Z,2.67
2023-01-28T16:12:22.655Z,2.95
2023-01-28T16:14:57.232Z,2.67
2023-01-28T16:17:38.994Z,2.30
2023-01-28T16:20:07.962Z,2.40
2023-01-28T16:22:39.362Z,1.73
2023-01-28T16:25:21.517Z,2.10
2023-01-28T16:27:48.791Z,1.90
2023-01-28T16:30:16.855Z,2.00
2023-01-28T16:32:44.116Z,2.50
2023-01-28T16:35:15.893Z,1.90
2023-01-28T16:37:43.677Z,2.70
2023-01-28T16:40:13.146Z,3.63
2023-01-28T16:42:40.288Z,2.80
2023-01-28T16:45:10.513Z,2.63
2023-01-28T16:47:37.653Z,3.13
2023-01-28T16:52:31.752Z,2.55
2023-01-28T16:55:00.488Z,13.55
2023-01-28T16:57:27.527Z,8.85
2023-01-28T16:59:54.670Z,4.53
2023-01-28T17:04:48.714Z,17.40
2023-01-28T17:07:15.799Z,20.27
2023-01-28T17:09:42.947Z,8.60
2023-01-28T17:14:36.928Z,3.35
2023-01-28T17:19:31.112Z,5.40
2023-01-28T17:22:00.964Z,10.68
2023-01-28T17:24:29.993Z,6.88
2023-01-28T17:26:57.070Z,6.75
2023-01-28T17:31:51.270Z,4.70
2023-01-28T17:34:18.459Z,4.07
2023-01-28T17:39:13.472Z,3.53
2023-01-28T17:41:40.582Z,4.13
2023-01-28T17:46:34.684Z,3.38
2023-01-28T17:51:29.316Z,4.43
2023-01-28T17:53:56.540Z,6.90
2023-01-28T17:56:25.992Z,5.93
2023-01-28T17:58:54.351Z,4.55
2023-01-28T18:01:22.375Z,4.03
2023-01-28T18:03:49.557Z,4.43
2023-01-28T18:08:43.958Z,4.57
2023-01-28T18:11:11.675Z,5.38
2023-01-28T18:13:39.444Z,4.70
2023-01-28T18:16:07.662Z,4.05
2023-01-28T18:18:34.804Z,4.65
2023-01-28T18:21:03.900Z,4.78
2023-01-28T18:23:31.522Z,5.78
2023-01-28T18:26:03.569Z,5.95
2023-01-28T18:28:30.939Z,6.20
2023-01-28T18:31:08.020Z,6.45
2023-01-28T18:33:35.181Z,5.85
2023-01-28T18:38:29.646Z,8.25
2023-01-28T18:40:56.737Z,6.40
2023-01-28T18:45:52.291Z,6.53
2023-01-28T18:48:19.684Z,6.38
2023-01-28T18:50:50.780Z,6.47
2023-01-28T18:53:17.784Z,6.63
2023-01-28T18:55:45.145Z,6.85
2023-01-28T18:58:12.360Z,5.90
2023-01-28T19:00:40.239Z,5.97
2023-01-28T19:03:07.267Z,6.20
2023-01-28T19:05:39.111Z,6.00
2023-01-28T19:08:06.584Z,5.15
2023-01-28T19:10:33.841Z,5.60
2023-01-28T19:13:01.153Z,5.28
2023-01-28T19:15:28.447Z,6.32
2023-01-28T19:17:55.545Z,5.90
2023-01-28T19:22:49.689Z,6.22
2023-01-28T19:27:44.668Z,7.20
2023-01-28T19:30:12.144Z,7.47
2023-01-28T19:32:39.335Z,8.10
2023-01-28T19:35:07.193Z,7.50
2023-01-28T19:37:34.286Z,7.78
2023-01-28T19:42:28.337Z,7.88
2023-01-28T19:47:22.429Z,8.52
2023-01-28T19:52:16.421Z,8.88
2023-01-28T19:57:10.631Z,9.25
2023-01-28T19:59:37.713Z,9.60
2023-01-28T20:04:31.887Z,9.50
2023-01-28T20:06:58.916Z,9.30
2023-01-28T20:11:53.345Z,10.13
2023-01-28T20:14:21.523Z,9.55
2023-01-28T20:16:49.153Z,10.73
2023-01-28T20:19:17.939Z,9.88
2023-01-28T20:21:45.460Z,10.60
2023-01-28T20:24:13.450Z,9.82
2023-01-28T20:26:41.083Z,10.60
2023-01-28T20:29:09.735Z,10.45
2023-01-28T20:31:37.180Z,9.77
2023-01-28T20:34:04.389Z,10.52
2023-01-28T20:38:58.464Z,8.50
2023-01-28T20:43:53.302Z,9.55
2023-01-28T20:46:22.627Z,9.25
2023-01-28T20:48:49.897Z,9.25
2023-01-28T20:51:22.160Z,9.70
2023-01-28T20:53:49.274Z,10.40
2023-01-28T20:58:46.133Z,9.68
2023-01-28T21:01:17.772Z,8.32
2023-01-28T21:03:44.940Z,10.45
2023-01-28T21:08:38.981Z,9.35
2023-01-28T21:13:33.421Z,9.32
2023-01-28T21:18:27.702Z,8.02
2023-01-28T21:20:55.142Z,8.52
2023-01-28T21:23:25.165Z,7.68
2023-01-28T21:25:52.698Z,8.45
2023-01-28T21:28:20.080Z,8.43
2023-01-28T21:30:47.367Z,8.50
2023-01-28T21:33:14.476Z,8.13
2023-01-28T21:38:09.577Z,8.57
2023-01-28T21:40:36.753Z,8.13
2023-01-28T21:43:04.102Z,7.82
2023-01-28T21:45:31.077Z,9.05
2023-01-28T21:47:58.122Z,9.20
2023-01-28T21:52:52.188Z,8.48
2023-01-28T21:57:46.184Z,9.07
2023-01-28T22:00:14.287Z,8.85
2023-01-28T22:02:41.845Z,8.88
2023-01-28T22:05:09.394Z,9.63
2023-01-28T22:07:36.474Z,8.43
2023-01-28T22:12:30.563Z,7.82
2023-01-28T22:17:25.822Z,7.60
2023-01-28T22:19:52.994Z,7.53
2023-01-28T22:24:47.082Z,7.15
2023-01-28T22:29:41.399Z,7.03
2023-01-28T22:34:35.602Z,6.95
2023-01-28T22:37:02.648Z,6.75
2023-01-28T22:41:56.730Z,6.72
2023-01-28T22:46:50.766Z,6.22
2023-01-28T22:51:44.930Z,6.00
2023-01-28T22:56:40.272Z,6.07
2023-01-28T22:59:07.304Z,5.82
2023-01-28T23:01:35.565Z,5.68
2023-01-28T23:04:02.675Z,6.15
2023-01-28T23:08:57.278Z,5.25
2023-01-28T23:14:16.257Z,4.72
2023-01-28T23:17:02.329Z,5.03
2023-01-28T23:19:47.836Z,4.93
2023-01-28T23:22:43.916Z,4.55
2023-01-28T23:25:11.126Z,4.72
2023-01-28T23:30:10.023Z,3.88
2023-01-28T23:32:41.730Z,4.57
2023-01-28T23:35:09.483Z,4.35
2023-01-28T23:37:36.763Z,3.92
2023-01-28T23:40:04.966Z,4.55
2023-01-28T23:42:32.093Z,4.50
2023-01-28T23:47:26.166Z,4.00
2023-01-28T23:49:53.609Z,4.43
2023-01-28T23:52:20.911Z,4.00
2023-01-28T23:54:48.164Z,4.45
2023-01-28T23:57:15.324Z,4.60
